Time;durP1;ratioP1;P1;durP2;ratioP2;P2;SDS_P1;SDS_P2;PMS_P1;PMS_P2;Temp;Humidity;BMP_temperature;BMP_pressure;BME280_temperature;BME280_humidity;BME280_pressure;Samples;Min_cycle;Max_cycle;Signal;HPM_P1;HPM_P2
2022/06/23 00:02:38;;;;;;;22.27;8.45;;;17.10;99.90;;;;;;5074250;28;20070;-89
2022/06/23 00:05:36;;;;;;;25.98;7.60;;;17.10;99.90;;;;;;5073065;28;20047;-90
2022/06/23 00:08:26;;;;;;;22.33;7.90;;;17.00;99.90;;;;;;5072319;28;20473;-90
2022/06/23 00:11:24;;;;;;;;;;;17.00;99.90;;;;;;5070263;28;20032;-89
2022/06/23 00:14:16;;;;;;;25.70;8.65;;;17.00;99.90;;;;;;5061345;28;20282;-87
2022/06/23 00:17:45;;;;;;;26.67;8.43;;;17.00;99.90;;;;;;5042461;28;20106;-89
2022/06/23 00:20:34;;;;;;;24.65;9.10;;;17.00;99.90;;;;;;5071366;28;20040;-89
2022/06/23 00:23:24;;;;;;;23.85;9.13;;;17.00;99.90;;;;;;5076181;28;20037;-90
2022/06/23 00:26:33;;;;;;;21.13;8.25;;;17.00;99.90;;;;;;5071347;28;20953;-90
2022/06/23 00:29:23;;;;;;;24.08;8.68;;;17.10;99.90;;;;;;5078562;28;20040;-90
2022/06/23 00:32:12;;;;;;;26.20;8.38;;;17.10;99.90;;;;;;5085818;28;20044;-88
2022/06/23 00:35:04;;;;;;;33.95;7.55;;;17.10;99.90;;;;;;5090470;28;20048;-87
2022/06/23 00:37:54;;;;;;;20.92;8.27;;;17.10;99.90;;;;;;5085891;28;20403;-87
2022/06/23 00:40:44;;;;;;;20.88;8.05;;;17.10;99.90;;;;;;5064808;28;20123;-90
2022/06/23 00:43:36;;;;;;;23.02;7.32;;;17.10;99.90;;;;;;5080140;28;20121;-89
2022/06/23 00:46:31;;;;;;;19.80;7.70;;;17.10;99.90;;;;;;5079318;28;20190;-89
2022/06/23 00:49:30;;;;;;;24.33;8.55;;;17.10;99.90;;;;;;5064213;28;20051;-90
2022/06/23 00:52:33;;;;;;;24.60;7.68;;;17.10;99.90;;;;;;5075226;28;20130;-90
2022/06/23 00:55:33;;;;;;;25.10;7.30;;;17.00;99.90;;;;;;5081941;28;20061;-88
2022/06/23 00:58:30;;;;;;;22.23;7.53;;;17.00;99.90;;;;;;5079006;28;20051;-89
2022/06/23 01:01:47;;;;;;;31.77;7.90;;;16.80;99.90;;;;;;5073164;28;20095;-89
2022/06/23 01:04:49;;;;;;;26.10;8.98;;;16.60;99.90;;;;;;5082779;28;20084;-89
2022/06/23 01:07:58;;;;;;;27.92;8.57;;;16.50;99.90;;;;;;5093154;28;20071;-88
2022/06/23 01:10:55;;;;;;;25.40;8.48;;;16.40;99.90;;;;;;5091298;28;20049;-89
2022/06/23 01:14:03;;;;;;;23.30;8.95;;;16.20;99.90;;;;;;5090161;28;20044;-90
2022/06/23 01:17:20;;;;;;;18.50;7.88;;;16.10;99.90;;;;;;5075592;28;20036;-92
2022/06/23 01:20:26;;;;;;;26.23;8.98;;;15.90;99.90;;;;;;5081467;28;20048;-92
2022/06/23 01:23:21;;;;;;;21.88;9.70;;;15.90;99.90;;;;;;5064219;28;20176;-88
2022/06/23 01:26:42;;;;;;;25.75;9.77;;;15.80;99.90;;;;;;5067652;28;20151;-87
2022/06/23 01:29:44;;;;;;;24.33;10.38;;;15.70;99.90;;;;;;5072275;28;20125;-87
2022/06/23 01:32:42;;;;;;;25.65;11.27;;;15.80;99.90;;;;;;5081682;28;20048;-87
2022/06/23 01:35:37;;;;;;;23.17;10.70;;;15.80;99.90;;;;;;5086802;28;20071;-89
2022/06/23 01:38:53;;;;;;;24.40;10.95;;;15.80;99.90;;;;;;5059796;28;20059;-89
2022/06/23 01:41:56;;;;;;;29.75;11.23;;;15.70;99.90;;;;;;5073912;28;20055;-90
2022/06/23 01:45:08;;;;;;;33.25;11.60;;;15.60;99.90;;;;;;5067150;28;20041;-89
2022/06/23 01:48:08;;;;;;;35.67;12.27;;;15.50;99.90;;;;;;5081624;28;20055;-87
2022/06/23 01:50:56;;;;;;;31.80;12.80;;;15.50;99.90;;;;;;5061548;28;20052;-89
2022/06/23 01:53:43;;;;;;;28.88;12.50;;;15.60;99.90;;;;;;5062799;28;20040;-89
2022/06/23 01:56:40;;;;;;;31.83;13.48;;;15.60;99.90;;;;;;5075126;28;20040;-91
2022/06/23 01:59:49;;;;;;;32.65;14.00;;;15.60;99.90;;;;;;5065382;28;20106;-89
2022/06/23 02:02:49;;;;;;;25.90;13.80;;;15.60;99.90;;;;;;5053258;28;20118;-89
2022/06/23 02:05:42;;;;;;;38.13;14.48;;;15.60;99.90;;;;;;5077961;28;20083;-89
2022/06/23 02:08:35;;;;;;;39.45;15.32;;;15.50;99.90;;;;;;5063076;28;20106;-89
2022/06/23 02:11:43;;;;;;;29.95;14.02;;;15.50;99.90;;;;;;5069956;28;20071;-87
2022/06/23 02:15:00;;;;;;;36.40;16.52;;;15.30;99.90;;;;;;5068743;28;20052;-87
2022/06/23 02:17:59;;;;;;;39.63;16.95;;;15.20;99.90;;;;;;5052457;28;20041;-89
2022/06/23 02:21:24;;;;;;;36.30;16.05;;;15.20;99.90;;;;;;5057300;28;20424;-89
2022/06/23 02:24:44;;;;;;;34.78;16.27;;;15.20;99.90;;;;;;5073883;28;20464;-90
2022/06/23 02:28:01;;;;;;;34.65;16.25;;;15.30;99.90;;;;;;5068049;28;20486;-89
2022/06/23 02:31:03;;;;;;;35.95;16.48;;;15.20;99.90;;;;;;5066996;28;20457;-90
2022/06/23 02:33:55;;;;;;;41.85;17.42;;;15.10;99.90;;;;;;5052848;28;20411;-91
2022/06/23 02:37:05;;;;;;;47.17;17.97;;;15.10;99.90;;;;;;5053428;28;20428;-90
2022/06/23 02:39:55;;;;;;;37.83;17.05;;;15.10;99.90;;;;;;5088512;28;20115;-89
2022/06/23 02:42:49;;;;;;;40.25;17.95;;;15.00;99.90;;;;;;5057548;28;20087;-91
2022/06/23 02:46:29;;;;;;;38.92;17.90;;;15.00;99.90;;;;;;5069660;28;20056;-91
2022/06/23 02:49:35;;;;;;;48.67;17.85;;;15.00;99.90;;;;;;4993401;28;20389;-91
2022/06/23 02:52:44;;;;;;;33.65;15.90;;;14.90;99.90;;;;;;5056368;28;20120;-90
2022/06/23 02:56:08;;;;;;;40.45;17.42;;;14.90;99.90;;;;;;5072383;28;20059;-88
2022/06/23 02:59:09;;;;;;;45.22;17.48;;;14.90;99.90;;;;;;5050546;28;20075;-91
2022/06/23 03:02:12;;;;;;;33.15;17.02;;;15.00;99.90;;;;;;5081804;28;20095;-90
2022/06/23 03:05:22;;;;;;;42.35;18.27;;;14.90;99.90;;;;;;5077713;28;20049;-89
2022/06/23 03:08:30;;;;;;;43.67;18.17;;;15.00;99.90;;;;;;5077858;28;20125;-87
2022/06/23 03:14:39;;;;;;;42.30;19.17;;;15.20;99.90;;;;;;5069201;28;20098;-88
2022/06/23 03:17:33;;;;;;;47.35;19.13;;;15.20;99.90;;;;;;5067173;28;20076;-89
2022/06/23 03:20:26;;;;;;;35.47;18.25;;;15.10;99.90;;;;;;5060168;28;20131;-87
2022/06/23 03:23:42;;;;;;;35.58;18.35;;;15.00;99.90;;;;;;5074621;28;20048;-88
2022/06/23 03:26:48;;;;;;;38.75;18.90;;;15.00;99.90;;;;;;5065570;28;20141;-89
2022/06/23 03:29:44;;;;;;;38.15;17.73;;;14.90;99.90;;;;;;5070614;28;20213;-90
2022/06/23 03:32:36;;;;;;;52.17;19.95;;;14.90;99.90;;;;;;5075191;28;20114;-89
2022/06/23 03:35:39;;;;;;;42.88;19.90;;;15.00;99.90;;;;;;5074127;28;20127;-90
2022/06/23 03:42:07;;;;;;;35.67;19.50;;;15.30;99.90;;;;;;5073354;28;20302;-90
2022/06/23 03:45:04;;;;;;;40.55;20.38;;;15.30;99.90;;;;;;5065990;28;20040;-89
2022/06/23 03:48:06;;;;;;;49.80;19.90;;;15.40;99.90;;;;;;5061745;28;20095;-90
2022/06/23 03:51:10;;;;;;;36.22;18.45;;;15.30;99.90;;;;;;5048131;28;20055;-89
2022/06/23 03:54:17;;;;;;;43.92;20.73;;;15.30;99.90;;;;;;5072765;28;20048;-90
2022/06/23 03:57:21;;;;;;;34.58;19.38;;;15.40;99.90;;;;;;5068120;28;20032;-89
2022/06/23 04:00:26;;;;;;;37.22;20.40;;;15.30;99.90;;;;;;5067911;28;20295;-89
2022/06/23 04:03:30;;;;;;;44.40;19.60;;;15.20;99.90;;;;;;5057481;28;20033;-90
2022/06/23 04:06:32;;;;;;;39.63;19.83;;;15.20;99.90;;;;;;5074463;28;20032;-88
2022/06/23 04:09:32;;;;;;;41.78;20.33;;;15.20;99.90;;;;;;5060869;28;20076;-89
2022/06/23 04:12:19;;;;;;;;;;;15.30;99.90;;;;;;5051823;28;20048;-90
2022/06/23 04:15:18;;;;;;;44.50;18.40;;;15.20;99.90;;;;;;5060963;28;20340;-89
2022/06/23 04:18:28;;;;;;;35.50;16.70;;;15.10;99.90;;;;;;5055899;28;20040;-89
2022/06/23 04:21:23;;;;;;;39.30;17.90;;;15.00;99.90;;;;;;5070203;28;20037;-89
2022/06/23 04:28:24;;;;;;;42.47;20.50;;;15.00;99.90;;;;;;4990520;28;20333;-89
2022/06/23 04:31:39;;;;;;;47.70;21.55;;;14.90;99.90;;;;;;5041292;28;20319;-91
2022/06/23 04:34:34;;;;;;;38.63;20.90;;;15.00;99.90;;;;;;5059445;28;20045;-89
2022/06/23 04:37:32;;;;;;;45.50;21.90;;;15.00;99.90;;;;;;5063491;28;20032;-89
2022/06/23 04:40:58;;;;;;;;;;;;;;;;;;;;;
2022/06/23 04:44:08;;;;;;;41.88;19.20;;;15.10;99.90;;;;;;5049777;28;20052;-90
2022/06/23 04:47:06;;;;;;;40.00;19.58;;;15.20;99.90;;;;;;5054224;28;20049;-89
2022/06/23 04:55:04;;;;;;;44.38;22.25;;;15.30;99.90;;;;;;5080177;28;20376;-90
2022/06/23 04:58:03;;;;;;;42.00;22.27;;;15.50;99.90;;;;;;4981079;28;20074;-88
2022/06/23 05:00:57;;;;;;;42.00;21.30;;;15.70;99.90;;;;;;5004190;28;20481;-88
2022/06/23 05:03:49;;;;;;;50.42;22.45;;;15.80;99.90;;;;;;5082239;28;20162;-88
2022/06/23 05:06:39;;;;;;;48.85;23.60;;;15.80;99.90;;;;;;5075964;28;20078;-90
2022/06/23 05:09:39;;;;;;;43.72;23.17;;;15.90;99.90;;;;;;5075391;28;20041;-89
2022/06/23 05:12:37;;;;;;;40.83;21.38;;;16.10;99.90;;;;;;5058484;28;20040;-91
2022/06/23 05:15:50;;;;;;;41.85;20.70;;;16.20;99.90;;;;;;5063323;28;20040;-91
2022/06/23 05:18:42;;;;;;;;;;;16.40;99.90;;;;;;5068377;28;20048;-90
2022/06/23 05:21:38;;;;;;;36.78;19.05;;;16.50;99.90;;;;;;5075458;28;20027;-89
2022/06/23 05:24:33;;;;;;;32.42;18.65;;;16.50;99.90;;;;;;5051528;28;20049;-89
2022/06/23 05:27:34;;;;;;;36.00;17.98;;;16.50;99.90;;;;;;5069176;28;20040;-90
2022/06/23 05:30:28;;;;;;;39.00;16.77;;;16.60;99.90;;;;;;5076532;28;20046;-90
2022/06/23 05:33:24;;;;;;;28.85;15.25;;;16.70;99.90;;;;;;5079468;28;20051;-90
2022/06/23 05:36:37;;;;;;;32.30;16.77;;;16.70;99.90;;;;;;5071732;28;20041;-90
2022/06/23 05:40:05;;;;;;;32.58;15.85;;;16.80;99.90;;;;;;5073500;28;20071;-90
2022/06/23 05:42:58;;;;;;;31.27;13.57;;;16.90;99.90;;;;;;5058688;28;20197;-89
2022/06/23 05:45:49;;;;;;;23.00;12.02;;;17.00;99.90;;;;;;5052365;28;20044;-91
2022/06/23 05:48:42;;;;;;;25.38;11.82;;;17.20;99.90;;;;;;5073152;28;20128;-90
2022/06/23 05:51:43;;;;;;;20.27;10.82;;;17.20;99.90;;;;;;5060412;28;20062;-91
2022/06/23 05:54:33;;;;;;;23.90;11.07;;;17.40;99.90;;;;;;5067397;28;20143;-88
2022/06/23 05:57:28;;;;;;;21.00;9.98;;;17.50;99.90;;;;;;5061503;28;20055;-89
2022/06/23 06:00:18;;;;;;;28.90;10.07;;;17.60;99.90;;;;;;5059377;28;20097;-91
2022/06/23 06:03:06;;;;;;;19.13;10.55;;;17.80;99.90;;;;;;5060552;28;20052;-91
2022/06/23 06:06:00;;;;;;;25.27;9.32;;;17.90;99.90;;;;;;5073449;28;20060;-92
2022/06/23 06:12:01;;;;;;;22.92;8.07;;;18.10;99.90;;;;;;5068929;28;20044;-90
2022/06/23 06:15:05;;;;;;;15.70;7.13;;;18.30;99.90;;;;;;5071610;28;20140;-89
2022/06/23 06:18:06;;;;;;;20.73;5.65;;;18.50;99.90;;;;;;5048397;28;20456;-91
2022/06/23 06:21:07;;;;;;;20.63;6.18;;;18.70;99.90;;;;;;5072769;28;20047;-92
2022/06/23 06:23:59;;;;;;;;;;;18.90;99.90;;;;;;5059761;28;20052;-90
2022/06/23 06:26:51;;;;;;;14.18;5.47;;;19.00;99.90;;;;;;5073115;28;19932;-89
2022/06/23 06:29:44;;;;;;;13.70;5.25;;;19.30;99.90;;;;;;5054798;28;20059;-92
2022/06/23 06:32:35;;;;;;;15.48;4.15;;;19.30;99.90;;;;;;5082093;28;20492;-89
2022/06/23 06:35:28;;;;;;;14.88;5.30;;;19.40;99.90;;;;;;5044713;28;20036;-89
2022/06/23 06:38:17;;;;;;;10.30;4.60;;;19.40;99.90;;;;;;5058228;28;20044;-92
2022/06/23 06:41:15;;;;;;;15.15;4.40;;;19.60;99.90;;;;;;5069637;28;20052;-93
2022/06/23 06:44:11;;;;;;;9.55;3.75;;;19.80;99.90;;;;;;5074521;28;20052;-90
2022/06/23 06:47:00;;;;;;;13.30;4.47;;;19.90;99.90;;;;;;5059799;28;20353;-91
2022/06/23 06:49:56;;;;;;;13.82;4.40;;;20.10;99.90;;;;;;5075644;28;20054;-89
2022/06/23 06:52:49;;;;;;;8.43;3.72;;;20.30;99.90;;;;;;5073845;28;20055;-88
2022/06/23 06:55:44;;;;;;;12.95;3.42;;;20.60;99.90;;;;;;5059088;28;20048;-90
2022/06/23 06:58:38;;;;;;;12.77;4.53;;;20.70;99.90;;;;;;5077566;28;20446;-89
2022/06/23 07:01:27;;;;;;;10.10;3.35;;;20.90;99.90;;;;;;5067107;28;20098;-91
2022/06/23 07:04:22;;;;;;;10.32;3.33;;;21.30;99.90;;;;;;5072284;28;20461;-87
2022/06/23 07:07:19;;;;;;;12.00;3.50;;;21.60;99.90;;;;;;5072996;28;20350;-88
2022/06/23 07:10:30;;;;;;;11.07;3.10;;;22.20;99.90;;;;;;5069826;28;20169;-89
2022/06/23 07:13:24;;;;;;;13.73;3.67;;;22.90;99.90;;;;;;5059534;28;20040;-90
2022/06/23 07:16:26;;;;;;;14.65;4.20;;;23.10;99.90;;;;;;5071272;28;20047;-89
2022/06/23 07:19:17;;;;;;;11.40;3.57;;;23.30;99.90;;;;;;5067940;28;20048;-87
2022/06/23 07:22:23;;;;;;;14.82;3.85;;;23.50;99.90;;;;;;5059676;28;20102;-91
2022/06/23 07:25:15;;;;;;;7.60;2.70;;;23.70;99.90;;;;;;5071532;28;20048;-89
2022/06/23 07:28:17;;;;;;;11.70;2.80;;;24.20;99.90;;;;;;5068825;28;20454;-90
2022/06/23 07:31:18;;;;;;;11.73;3.85;;;24.50;99.90;;;;;;5067109;28;20059;-90
2022/06/23 07:34:09;;;;;;;13.95;3.67;;;24.80;99.90;;;;;;5077205;28;20060;-91
2022/06/23 07:36:58;;;;;;;9.52;2.70;;;24.80;99.90;;;;;;5073193;28;20037;-89
2022/06/23 07:39:49;;;;;;;8.65;3.40;;;25.50;99.90;;;;;;5070552;28;20044;-90
2022/06/23 07:42:48;;;;;;;12.73;3.57;;;26.00;99.90;;;;;;5072131;28;20044;-89
2022/06/23 07:45:48;;;;;;;7.38;2.83;;;26.40;99.90;;;;;;5071668;28;20045;-89
2022/06/23 07:48:38;;;;;;;8.13;2.55;;;26.60;99.90;;;;;;5068907;28;20166;-88
2022/06/23 07:51:26;;;;;;;10.25;3.05;;;27.10;99.90;;;;;;5070413;28;20090;-91
2022/06/23 07:54:20;;;;;;;11.52;3.35;;;26.50;99.90;;;;;;5072306;28;20103;-90
2022/06/23 07:57:08;;;;;;;13.50;3.60;;;25.70;99.90;;;;;;5059991;28;20060;-89
2022/06/23 08:00:00;;;;;;;14.02;3.30;;;25.60;99.90;;;;;;5057188;28;20049;-87
2022/06/23 08:02:51;;;;;;;;;;;26.30;99.90;;;;;;5084298;28;20037;-87
2022/06/23 08:05:43;;;;;;;12.00;3.88;;;26.80;99.90;;;;;;5086288;28;19920;-93
2022/06/23 08:08:34;;;;;;;9.77;2.75;;;26.90;97.10;;;;;;5073452;28;20521;-85
2022/06/23 08:18:26;;;;;;;8.80;2.85;;;27.30;97.80;;;;;;5062464;28;20059;-88
2022/06/23 08:21:20;;;;;;;8.30;2.38;;;27.30;96.20;;;;;;5059247;28;20090;-87
2022/06/23 08:24:14;;;;;;;12.02;3.20;;;27.80;92.60;;;;;;5072057;28;20144;-91
2022/06/23 08:27:13;;;;;;;8.77;2.50;;;28.00;95.60;;;;;;5073492;28;20050;-90
2022/06/23 08:30:08;;;;;;;10.27;2.72;;;28.10;96.00;;;;;;5072834;28;20067;-87
2022/06/23 08:33:04;;;;;;;;;;;28.30;94.90;;;;;;5068487;28;20109;-88
2022/06/23 08:35:56;;;;;;;7.05;2.42;;;28.60;94.00;;;;;;5073233;28;19920;-89
2022/06/23 08:38:55;;;;;;;6.50;2.45;;;29.10;88.70;;;;;;5072652;28;20037;-89
2022/06/23 08:41:58;;;;;;;10.45;2.55;;;29.30;86.70;;;;;;5056679;28;20102;-89
2022/06/23 08:45:35;;;;;;;11.02;2.70;;;28.50;81.40;;;;;;5082190;28;20045;-92
2022/06/23 08:48:51;;;;;;;8.85;2.60;;;27.60;86.50;;;;;;5083049;28;20040;-92
2022/06/23 08:51:56;;;;;;;7.70;2.67;;;27.80;92.70;;;;;;5090078;28;20461;-87
2022/06/23 08:54:50;;;;;;;16.13;3.45;;;28.60;92.00;;;;;;5074517;28;20087;-91
2022/06/23 08:57:56;;;;;;;9.98;2.92;;;29.00;83.50;;;;;;5077853;28;20178;-90
2022/06/23 09:00:52;;;;;;;9.07;2.40;;;28.30;86.80;;;;;;5071092;28;20105;-86
2022/06/23 09:04:07;;;;;;;8.77;2.70;;;28.40;82.90;;;;;;5072614;28;20051;-90
2022/06/23 09:07:11;;;;;;;11.73;2.90;;;28.60;86.30;;;;;;5076240;28;20051;-87
2022/06/23 09:10:08;;;;;;;8.73;2.63;;;28.70;81.30;;;;;;5062356;28;20059;-91
2022/06/23 09:13:26;;;;;;;10.73;2.33;;;29.10;86.80;;;;;;5071563;28;20105;-87
2022/06/23 09:16:25;;;;;;;7.63;2.17;;;30.20;77.60;;;;;;5072089;28;20473;-89
2022/06/23 09:19:34;;;;;;;7.97;2.10;;;30.50;75.70;;;;;;5075124;28;20036;-88
2022/06/23 09:22:47;;;;;;;9.88;2.28;;;30.50;76.50;;;;;;5075309;28;20385;-87
2022/06/23 09:25:59;;;;;;;8.98;2.35;;;30.60;72.00;;;;;;5076205;28;20048;-88
2022/06/23 09:28:49;;;;;;;12.50;2.38;;;30.70;71.80;;;;;;5071579;28;20045;-88
2022/06/23 09:31:58;;;;;;;7.28;2.30;;;31.10;71.50;;;;;;5058469;28;20041;-88
2022/06/23 09:35:11;;;;;;;12.30;2.60;;;31.00;69.20;;;;;;5067997;28;20037;-89
2022/06/23 09:38:36;;;;;;;6.38;2.35;;;31.20;70.10;;;;;;5087429;28;20044;-90
2022/06/23 09:41:51;;;;;;;8.57;2.67;;;30.50;72.10;;;;;;5070385;28;20040;-88
2022/06/23 09:44:56;;;;;;;6.95;2.00;;;30.70;66.70;;;;;;5090837;28;20049;-87
2022/06/23 09:48:04;;;;;;;7.63;2.45;;;31.40;66.90;;;;;;5081351;28;20044;-89
2022/06/23 09:51:06;;;;;;;7.47;2.33;;;32.10;67.10;;;;;;5081805;28;20076;-89
2022/06/23 09:54:14;;;;;;;6.80;1.85;;;32.40;65.50;;;;;;5079360;28;20055;-88
2022/06/23 09:57:32;;;;;;;8.95;2.08;;;32.60;62.70;;;;;;5068827;28;20083;-89
2022/06/23 10:00:30;;;;;;;5.68;1.65;;;32.00;63.80;;;;;;5068821;28;20118;-86
2022/06/23 10:03:39;;;;;;;9.05;2.47;;;31.90;60.50;;;;;;5076005;28;20128;-89
2022/06/23 10:06:33;;;;;;;9.20;2.00;;;31.50;62.60;;;;;;5070003;28;20056;-89
2022/06/23 10:09:37;;;;;;;6.90;1.92;;;31.90;60.70;;;;;;5080207;28;20469;-90
2022/06/23 10:12:56;;;;;;;9.50;1.95;;;32.20;62.20;;;;;;5081562;28;20059;-92
2022/06/23 10:16:21;;;;;;;12.27;2.03;;;32.60;60.70;;;;;;5095640;27;20021;-90
2022/06/23 10:19:26;;;;;;;5.32;1.60;;;32.80;56.80;;;;;;5083047;28;20052;-89
2022/06/23 10:22:43;;;;;;;7.35;1.95;;;32.70;58.60;;;;;;5082014;28;20044;-91
2022/06/23 10:25:40;;;;;;;6.07;2.00;;;31.70;56.10;;;;;;5079105;28;20135;-89
2022/06/23 10:28:39;;;;;;;8.05;1.98;;;31.00;62.90;;;;;;5080451;28;20056;-90
2022/06/23 10:31:33;;;;;;;7.75;2.28;;;31.50;60.70;;;;;;5069596;28;20044;-87
2022/06/23 10:34:44;;;;;;;9.32;2.17;;;31.80;59.60;;;;;;5078559;28;20051;-89
2022/06/23 10:38:13;;;;;;;5.18;2.13;;;32.20;55.40;;;;;;5080955;28;20076;-89
2022/06/23 10:41:00;;;;;;;6.18;1.75;;;32.10;59.20;;;;;;5065677;28;20056;-90
2022/06/23 10:44:12;;;;;;;6.40;2.03;;;32.80;54.40;;;;;;5076934;28;20058;-90
2022/06/23 10:47:08;;;;;;;10.43;2.67;;;31.90;55.30;;;;;;5076951;28;20122;-91
2022/06/23 10:50:14;;;;;;;7.05;2.00;;;32.50;58.00;;;;;;5078844;28;20041;-90
2022/06/23 10:53:54;;;;;;;7.82;2.30;;;32.60;57.20;;;;;;5076375;28;20072;-91
2022/06/23 10:57:04;;;;;;;8.10;2.00;;;33.10;58.50;;;;;;5063735;28;20067;-89
2022/06/23 11:00:43;;;;;;;6.95;2.20;;;34.30;56.40;;;;;;5073272;28;20087;-89
2022/06/23 11:03:44;;;;;;;7.88;1.95;;;33.90;55.00;;;;;;5032340;28;20056;-90
2022/06/23 11:06:59;;;;;;;7.65;1.95;;;34.60;55.30;;;;;;5071955;28;20373;-89
2022/06/23 11:10:02;;;;;;;6.85;2.10;;;35.10;55.70;;;;;;5079611;28;20070;-89
2022/06/23 11:13:13;;;;;;;5.30;2.00;;;35.40;51.40;;;;;;5074306;28;20044;-91
2022/06/23 11:16:28;;;;;;;5.97;2.30;;;35.40;49.50;;;;;;5069064;28;20037;-90
2022/06/23 11:19:19;;;;;;;10.25;2.17;;;33.80;52.10;;;;;;5042061;28;20048;-90
2022/06/23 11:22:35;;;;;;;6.05;1.90;;;34.20;54.60;;;;;;5077218;28;20048;-91
2022/06/23 11:25:46;;;;;;;8.18;2.08;;;34.90;56.00;;;;;;5064293;28;20373;-88
2022/06/23 11:28:54;;;;;;;8.90;2.28;;;35.20;49.80;;;;;;5073627;28;20052;-93
2022/06/23 11:31:59;;;;;;;9.07;2.50;;;34.10;51.40;;;;;;5084388;28;20055;-92
2022/06/23 11:35:10;;;;;;;8.82;2.40;;;34.20;53.20;;;;;;5062052;28;20052;-92
2022/06/23 11:38:29;;;;;;;6.97;2.20;;;34.50;52.40;;;;;;5078200;28;20448;-91
2022/06/23 11:41:53;;;;;;;10.77;2.40;;;34.80;52.20;;;;;;5074773;28;20433;-93
2022/06/23 11:45:04;;;;;;;6.50;2.25;;;35.10;47.90;;;;;;5068737;28;20044;-92
2022/06/23 11:48:25;;;;;;;9.43;2.42;;;34.80;49.20;;;;;;5068419;28;20202;-91
2022/06/23 11:51:50;;;;;;;5.45;2.05;;;35.30;51.40;;;;;;5060935;28;20052;-92
2022/06/23 11:54:40;;;;;;;6.28;2.10;;;35.60;49.60;;;;;;5075979;28;20052;-93
2022/06/23 11:57:54;;;;;;;7.80;1.98;;;35.60;49.60;;;;;;5070483;28;20131;-93
2022/06/23 12:00:42;;;;;;;6.60;1.88;;;36.20;48.10;;;;;;5075025;28;20064;-92
2022/06/23 12:03:53;;;;;;;7.28;2.20;;;36.60;49.40;;;;;;5078402;28;20044;-92
2022/06/23 12:06:45;;;;;;;6.88;1.92;;;37.20;45.90;;;;;;5056891;28;20043;-93
2022/06/23 12:10:12;;;;;;;6.47;2.10;;;37.30;45.80;;;;;;5050457;28;20161;-90
2022/06/23 12:13:02;;;;;;;7.43;2.38;;;36.80;45.40;;;;;;5067324;28;20055;-92
2022/06/23 12:15:50;;;;;;;9.63;2.40;;;36.90;46.90;;;;;;5073965;28;20055;-92
2022/06/23 12:18:49;;;;;;;9.40;1.92;;;36.40;45.70;;;;;;5071741;28;20044;-92
2022/06/23 12:21:51;;;;;;;5.93;2.15;;;36.30;48.40;;;;;;5071306;28;20052;-93
2022/06/23 12:24:41;;;;;;;6.82;2.25;;;36.90;47.10;;;;;;5063803;28;20085;-92
2022/06/23 12:28:09;;;;;;;9.25;2.10;;;36.40;47.20;;;;;;5073594;28;20048;-93
2022/06/23 12:31:08;;;;;;;7.38;1.88;;;36.30;48.30;;;;;;5067632;28;20049;-92
2022/06/23 12:34:08;;;;;;;6.63;2.05;;;37.40;48.60;;;;;;5070884;28;20449;-91
2022/06/23 12:37:29;;;;;;;6.82;2.42;;;37.20;42.30;;;;;;5066047;28;20652;-92
2022/06/23 12:40:47;;;;;;;6.25;1.98;;;37.90;46.90;;;;;;5071769;28;20140;-92
2022/06/23 12:43:49;;;;;;;9.48;2.42;;;38.10;44.00;;;;;;5073188;28;20064;-92
2022/06/23 12:46:58;;;;;;;8.25;1.88;;;36.80;44.80;;;;;;5079224;28;20048;-91
2022/06/23 12:50:09;;;;;;;9.07;2.33;;;35.70;45.70;;;;;;5060673;28;20441;-92
2022/06/23 12:53:14;;;;;;;8.95;2.17;;;35.90;46.40;;;;;;5062676;28;20123;-89
2022/06/23 12:56:04;;;;;;;6.63;2.15;;;36.10;43.90;;;;;;5068397;28;20088;-90
2022/06/23 12:59:17;;;;;;;6.30;1.98;;;36.10;46.30;;;;;;5058801;28;20074;-91
2022/06/23 13:02:35;;;;;;;7.95;2.35;;;36.20;45.80;;;;;;5053485;28;20044;-90
2022/06/23 13:05:32;;;;;;;10.10;2.00;;;37.60;41.30;;;;;;5068682;28;20044;-90
2022/06/23 13:08:29;;;;;;;8.68;2.30;;;37.10;43.20;;;;;;5069345;28;20045;-90
2022/06/23 13:11:30;;;;;;;8.25;1.98;;;36.70;43.80;;;;;;5069866;28;20117;-90
2022/06/23 13:14:41;;;;;;;6.97;2.28;;;36.70;44.00;;;;;;5063970;28;20041;-91
2022/06/23 13:17:32;;;;;;;8.20;2.33;;;36.50;45.00;;;;;;5076421;28;20041;-92
2022/06/23 13:20:35;;;;;;;9.45;2.47;;;37.10;40.00;;;;;;5072893;28;20437;-91
2022/06/23 13:23:37;;;;;;;8.38;2.00;;;37.50;43.50;;;;;;5056952;28;20171;-91
2022/06/23 13:26:29;;;;;;;11.88;2.38;;;38.50;43.00;;;;;;5068813;28;20327;-89
2022/06/23 13:29:40;;;;;;;5.97;2.17;;;37.90;41.10;;;;;;5049645;28;20071;-91
2022/06/23 13:32:53;;;;;;;7.70;2.83;;;37.90;43.20;;;;;;5074809;28;20074;-91
2022/06/23 13:35:53;;;;;;;5.95;1.83;;;37.10;42.90;;;;;;5068496;28;20047;-93
2022/06/23 13:39:03;;;;;;;7.25;2.38;;;37.70;43.80;;;;;;5063234;28;20098;-93
2022/06/23 13:41:57;;;;;;;8.13;2.30;;;36.80;44.30;;;;;;5072828;28;20051;-93
2022/06/23 13:45:13;;;;;;;6.50;1.88;;;37.80;46.40;;;;;;5080595;28;20052;-91
2022/06/23 13:48:26;;;;;;;10.32;2.38;;;38.00;42.00;;;;;;5069432;28;20048;-93
2022/06/23 13:51:40;;;;;;;8.15;2.20;;;37.20;41.90;;;;;;5081642;28;20048;-92
2022/06/23 13:54:47;;;;;;;6.22;1.92;;;35.80;44.90;;;;;;5077438;28;20049;-91
2022/06/23 13:57:47;;;;;;;7.38;2.28;;;36.50;44.90;;;;;;5053601;28;20045;-92
2022/06/23 14:00:45;;;;;;;8.35;2.55;;;36.10;44.30;;;;;;5075468;28;20052;-91
2022/06/23 14:03:48;;;;;;;14.80;2.65;;;34.80;46.30;;;;;;5059506;28;20106;-87
2022/06/23 14:06:44;;;;;;;7.72;2.72;;;33.00;48.50;;;;;;5055181;28;20090;-88
2022/06/23 14:09:43;;;;;;;9.45;2.95;;;31.80;52.00;;;;;;5064745;28;20055;-92
2022/06/23 14:13:13;;;;;;;8.23;2.50;;;31.40;53.50;;;;;;5062368;28;20496;-91
2022/06/23 14:16:12;;;;;;;10.55;2.88;;;31.10;53.80;;;;;;5062626;28;20036;-91
2022/06/23 14:19:20;;;;;;;10.73;2.40;;;31.80;52.80;;;;;;5060923;28;20067;-92
2022/06/23 14:22:22;;;;;;;8.13;2.13;;;32.60;50.70;;;;;;5074494;28;20322;-91
2022/06/23 14:25:33;;;;;;;8.38;1.90;;;32.90;49.20;;;;;;5081576;28;20062;-92
2022/06/23 14:28:26;;;;;;;9.48;2.65;;;32.50;51.80;;;;;;5074440;28;20055;-92
2022/06/23 14:31:23;;;;;;;8.30;2.17;;;32.40;51.70;;;;;;5065241;28;20139;-93
2022/06/23 14:34:29;;;;;;;8.70;2.33;;;32.10;51.20;;;;;;5060416;28;20040;-90
2022/06/23 14:37:27;;;;;;;9.50;2.38;;;31.80;52.80;;;;;;5075040;28;20044;-92
2022/06/23 14:40:34;;;;;;;12.85;2.30;;;30.90;55.20;;;;;;5074998;28;20044;-90
2022/06/23 14:43:42;;;;;;;8.00;2.67;;;30.90;55.20;;;;;;5067340;28;20049;-92
2022/06/23 14:46:57;;;;;;;8.18;2.33;;;31.00;55.30;;;;;;5076604;28;20048;-92
2022/06/23 14:50:21;;;;;;;10.82;2.67;;;32.10;53.80;;;;;;5061181;28;20453;-92
2022/06/23 14:53:32;;;;;;;12.80;3.10;;;32.50;51.70;;;;;;5070953;28;20072;-91
2022/06/23 14:56:59;;;;;;;10.65;2.92;;;32.60;52.10;;;;;;5073702;28;20370;-92
2022/06/23 15:00:07;;;;;;;7.50;2.35;;;32.50;52.40;;;;;;5075398;28;20064;-91
2022/06/23 15:03:05;;;;;;;8.30;2.33;;;33.00;50.30;;;;;;5078928;28;20051;-94
2022/06/23 15:06:08;;;;;;;7.95;2.53;;;33.10;49.80;;;;;;5068064;28;20462;-94
2022/06/23 15:09:17;;;;;;;9.43;2.72;;;33.40;49.60;;;;;;5066187;28;20044;-91
2022/06/23 15:12:37;;;;;;;9.65;2.40;;;33.90;48.30;;;;;;5070240;28;20103;-91
2022/06/23 15:15:44;;;;;;;6.85;2.28;;;34.30;49.00;;;;;;5079246;28;20452;-90
2022/06/23 15:18:52;;;;;;;;;;;34.10;47.60;;;;;;5050991;28;20055;-89
2022/06/23 15:25:09;;;;;;;9.48;2.45;;;33.90;47.40;;;;;;5074146;28;20048;-92
2022/06/23 15:28:08;;;;;;;9.32;2.50;;;34.30;46.80;;;;;;5071474;28;20048;-91
2022/06/23 15:31:10;;;;;;;10.88;2.90;;;34.40;46.70;;;;;;5070947;28;20357;-90
2022/06/23 15:34:00;;;;;;;10.40;2.70;;;34.10;48.10;;;;;;5049555;28;20037;-92
2022/06/23 15:37:14;;;;;;;9.02;2.83;;;34.00;44.60;;;;;;5077337;28;20049;-91
2022/06/23 15:40:16;;;;;;;11.77;2.65;;;34.40;46.70;;;;;;5067169;28;20059;-93
2022/06/23 15:43:23;;;;;;;;;;;34.70;46.20;;;;;;5074265;28;20056;-92
2022/06/23 15:46:13;;;;;;;8.05;2.85;;;34.40;44.90;;;;;;5084641;28;19958;-90
2022/06/23 15:49:11;;;;;;;10.60;3.17;;;34.60;47.10;;;;;;5064124;28;20045;-90
2022/06/23 15:52:08;;;;;;;8.35;2.45;;;34.00;46.00;;;;;;5074884;28;20044;-88
2022/06/23 15:55:00;;;;;;;9.00;3.45;;;33.30;47.20;;;;;;5066372;28;20461;-88
2022/06/23 15:57:56;;;;;;;6.13;2.50;;;32.80;48.40;;;;;;5067153;28;20052;-92
2022/06/23 16:00:52;;;;;;;12.75;3.15;;;32.90;48.10;;;;;;5059543;28;20036;-90
2022/06/23 16:03:48;;;;;;;9.27;3.10;;;32.30;50.90;;;;;;5076854;28;20047;-87
2022/06/23 16:06:38;;;;;;;10.57;3.42;;;31.90;49.60;;;;;;5083101;28;20098;-89
2022/06/23 16:09:54;;;;;;;7.43;3.17;;;31.60;51.30;;;;;;5068625;28;20351;-90
2022/06/23 16:12:45;;;;;;;11.60;3.70;;;31.20;52.50;;;;;;5064108;28;20080;-89